Time;durP1;ratioP1;P1;durP2;ratioP2;P2;SDS_P1;SDS_P2;PMS_P1;PMS_P2;Temp;Humidity;BMP_temperature;BMP_pressure;BME280_temperature;BME280_humidity;BME280_pressure;Samples;Min_cycle;Max_cycle;Signal;HPM_P1;HPM_P2
2023/08/03 00:00:48;;;;;;;;;4.00;2.00;;;;;20.37;58.03;99530.31;5037046;28;45235;-71
2023/08/03 00:03:14;;;;;;;;;1.75;1.75;;;;;20.47;58.54;99559.44;5035837;28;45676;-70
2023/08/03 00:05:39;;;;;;;;;2.50;0.25;;;;;20.45;58.39;99566.97;5036273;28;46814;-71
2023/08/03 00:08:04;;;;;;;;;3.50;2.00;;;;;20.45;58.24;99557.00;5037065;28;45536;-71
2023/08/03 00:10:31;;;;;;;;;3.25;2.25;;;;;20.33;58.22;99548.84;5036232;28;56541;-71
2023/08/03 00:12:57;;;;;;;;;2.00;2.00;;;;;20.40;58.37;99580.28;5035042;28;45400;-71
2023/08/03 00:15:22;;;;;;;;;2.00;1.50;;;;;20.39;58.06;99562.47;5036519;28;47699;-72
2023/08/03 00:17:47;;;;;;;;;2.25;2.25;;;;;20.33;57.98;99551.56;5036498;28;45452;-71
2023/08/03 00:20:13;;;;;;;;;3.25;2.00;;;;;20.39;57.87;99574.09;5018695;28;45480;-71
2023/08/03 00:22:38;;;;;;;;;4.75;3.00;;;;;20.24;57.63;99536.78;5036511;28;45542;-72
2023/08/03 00:25:04;;;;;;;;;1.50;1.50;;;;;20.32;57.51;99566.13;5035214;28;48182;-71
2023/08/03 00:27:30;;;;;;;;;2.00;1.00;;;;;20.18;57.66;99550.38;5036114;28;45278;-81
2023/08/03 00:29:55;;;;;;;;;3.25;0.75;;;;;20.23;57.73;99559.44;5036514;28;45444;-70
2023/08/03 00:32:21;;;;;;;;;3.50;2.00;;;;;20.24;57.68;99553.00;5036671;28;45504;-71
2023/08/03 00:34:47;;;;;;;;;4.50;3.00;;;;;20.23;57.49;99561.31;5036398;28;46572;-71
2023/08/03 00:37:13;;;;;;;;;1.50;1.25;;;;;20.33;57.51;99573.16;5035060;28;45483;-70
2023/08/03 00:39:38;;;;;;;;;2.75;1.50;;;;;20.24;57.59;99552.16;5036367;28;45479;-70
2023/08/03 00:42:05;;;;;;;;;1.00;1.00;;;;;20.21;57.46;99542.63;5036589;28;45360;-72
2023/08/03 00:44:30;;;;;;;;;4.00;1.25;;;;;20.26;57.42;99567.06;5035814;28;48171;-71
2023/08/03 00:46:55;;;;;;;;;1.25;1.25;;;;;19.99;57.27;99522.72;5036216;28;45532;-71
2023/08/03 00:49:21;;;;;;;;;3.75;1.00;;;;;20.19;57.39;99565.53;5035014;28;45608;-71
2023/08/03 00:51:46;;;;;;;;;2.00;1.00;;;;;19.97;57.53;99522.94;5036481;28;45373;-72
2023/08/03 00:54:12;;;;;;;;;2.25;1.00;;;;;20.29;57.40;99569.28;5036120;28;46311;-71
2023/08/03 00:56:37;;;;;;;;;1.00;1.00;;;;;19.79;57.30;99489.88;5035991;28;45286;-72
2023/08/03 00:59:03;;;;;;;;;1.25;1.25;;;;;20.15;57.52;99565.19;5036198;28;45578;-71
2023/08/03 01:01:29;;;;;;;;;2.50;1.75;;;;;20.24;57.57;99577.28;5036549;28;45569;-70
2023/08/03 01:03:54;;;;;;;;;1.25;1.00;;;;;20.18;57.43;99550.38;5033867;28;68589;-71
2023/08/03 01:06:20;;;;;;;;;3.00;2.25;;;;;20.22;57.15;99571.31;5036209;28;45326;-72
2023/08/03 01:08:46;;;;;;;;;2.00;1.50;;;;;20.16;57.33;99569.53;5036302;28;45243;-71
2023/08/03 01:11:11;;;;;;;;;0.25;0.25;;;;;20.10;57.51;99570.47;5034876;28;45500;-72
2023/08/03 01:13:37;;;;;;;;;2.75;1.00;;;;;20.19;57.27;99574.44;5035474;28;45643;-72
2023/08/03 01:16:03;;;;;;;;;2.50;1.00;;;;;20.15;57.11;99578.66;5036060;28;45259;-71
2023/08/03 01:18:30;;;;;;;;;3.00;1.25;;;;;20.25;58.01;99587.03;5038687;28;45304;-72
2023/08/03 01:20:56;;;;;;;;;2.25;2.25;;;;;20.17;60.03;99606.25;5039680;28;45434;-72
2023/08/03 01:23:22;;;;;;;;;4.00;1.50;;;;;20.14;60.79;99595.09;5037892;28;49077;-72
2023/08/03 01:25:47;;;;;;;;;1.75;1.75;;;;;20.11;61.56;99614.47;5039137;28;45479;-71
2023/08/03 01:28:15;;;;;;;;;1.00;1.00;;;;;20.01;61.81;99609.63;5038829;28;45372;-71
2023/08/03 01:30:41;;;;;;;;;2.00;2.00;;;;;19.75;62.26;99579.34;5039556;28;45234;-71
2023/08/03 01:33:06;;;;;;;;;1.00;1.00;;;;;20.00;63.20;99610.69;5039192;28;46537;-71
2023/08/03 01:35:31;;;;;;;;;3.00;0.50;;;;;19.96;63.71;99631.91;5039079;28;45327;-71
2023/08/03 01:37:57;;;;;;;;;3.00;2.00;;;;;19.80;64.02;99586.72;5039066;28;45491;-73
2023/08/03 01:40:22;;;;;;;;;2.50;1.50;;;;;19.99;64.00;99641.41;5039296;28;45202;-71
2023/08/03 01:42:48;;;;;;;;;2.00;1.00;;;;;19.53;64.04;99577.38;5038876;28;46538;-72
2023/08/03 01:45:13;;;;;;;;;1.50;0.25;;;;;19.22;64.12;99513.78;5021057;28;45317;-70
2023/08/03 01:47:38;;;;;;;;;2.00;2.00;;;;;19.87;64.44;99632.50;5039396;28;45364;-71
2023/08/03 01:50:04;;;;;;;;;2.25;1.00;;;;;19.70;64.77;99624.25;5038865;28;47903;-72
2023/08/03 01:52:29;;;;;;;;;1.50;0.75;;;;;19.72;64.92;99631.06;5038757;28;47607;-71
2023/08/03 01:54:54;;;;;;;;;1.50;1.00;;;;;19.25;64.82;99556.47;5038682;28;45378;-72
2023/08/03 01:57:20;;;;;;;;;3.00;1.75;;;;;19.69;65.14;99642.31;5036999;28;55596;-71
2023/08/03 01:59:45;;;;;;;;;1.25;1.25;;;;;19.54;65.01;99628.41;5038962;28;45237;-73
2023/08/03 02:02:14;;;;;;;;;1.25;1.25;;;;;19.40;65.67;99625.03;5038798;28;45470;-71
2023/08/03 02:04:39;;;;;;;;;3.00;3.00;;;;;19.37;65.81;99649.75;5021217;28;45347;-72
2023/08/03 02:07:09;;;;;;;;;3.75;1.25;;;;;19.44;66.08;99655.09;5038894;28;45367;-72
2023/08/03 02:09:34;;;;;;;;;2.00;1.50;;;;;19.34;66.02;99625.16;5038935;28;45435;-72
2023/08/03 02:12:36;;;;;;;;;0.00;0.00;;;;;19.45;66.02;99651.34;5038306;28;46074;-72
2023/08/03 02:15:04;;;;;;;;;3.00;0.00;;;;;19.34;65.94;99655.63;5036886;28;45346;-72
2023/08/03 02:17:29;;;;;;;;;3.00;1.00;;;;;19.36;66.27;99668.84;5038722;28;45241;-72
2023/08/03 02:19:55;;;;;;;;;1.25;1.00;;;;;19.30;66.16;99648.22;5038586;28;45619;-71
2023/08/03 02:22:20;;;;;;;;;3.25;1.50;;;;;19.46;65.98;99674.53;5038251;28;46437;-71
2023/08/03 02:24:45;;;;;;;;;1.75;1.75;;;;;19.39;66.70;99679.19;5036927;28;45324;-71
2023/08/03 02:27:11;;;;;;;;;4.00;1.00;;;;;19.20;66.60;99656.00;5038589;28;45308;-72
2023/08/03 02:29:36;;;;;;;;;2.00;2.00;;;;;18.93;66.68;99609.72;5038157;28;45506;-72
2023/08/03 02:32:02;;;;;;;;;2.75;1.00;;;;;19.42;66.55;99676.03;5038145;28;46416;-72
2023/08/03 02:34:27;;;;;;;;;2.00;0.00;;;;;19.45;66.59;99683.69;5020209;28;45456;-72
2023/08/03 02:36:52;;;;;;;;;2.00;2.00;;;;;19.43;66.72;99693.88;5038388;28;45324;-72
2023/08/03 02:39:18;;;;;;;;;1.25;1.25;;;;;18.94;66.95;99603.28;5037862;28;47828;-72
2023/08/03 02:41:43;;;;;;;;;1.00;1.00;;;;;19.00;67.42;99616.66;5038133;28;45526;-72
2023/08/03 02:44:08;;;;;;;;;1.50;1.50;;;;;19.30;67.06;99664.38;5037766;28;45372;-72
2023/08/03 02:46:34;;;;;;;;;0.00;0.00;;;;;19.37;66.88;99670.50;5037926;28;53997;-72
2023/08/03 02:49:00;;;;;;;;;2.00;1.00;;;;;19.43;66.81;99675.00;5037800;28;50566;-71
2023/08/03 02:51:25;;;;;;;;;2.00;0.75;;;;;19.03;66.93;99635.09;5037917;28;45867;-72
2023/08/03 02:53:51;;;;;;;;;1.25;1.25;;;;;19.14;67.39;99652.34;5038010;28;45282;-72
2023/08/03 02:56:16;;;;;;;;;2.25;0.00;;;;;19.04;67.85;99639.44;5038038;28;45395;-72
2023/08/03 02:58:41;;;;;;;;;3.75;1.00;;;;;19.03;67.40;99640.47;5037925;28;45513;-72
2023/08/03 03:01:07;;;;;;;;;0.00;0.00;;;;;19.42;67.85;99702.97;5037435;28;57282;-72
2023/08/03 03:03:32;;;;;;;;;0.00;0.00;;;;;19.29;67.75;99676.22;5037613;28;49587;-71
2023/08/03 03:05:57;;;;;;;;;0.75;0.75;;;;;19.38;68.09;99705.31;5036993;28;63296;-71
2023/08/03 03:08:22;;;;;;;;;0.00;0.00;;;;;19.29;68.11;99682.44;5038209;28;45319;-71
2023/08/03 03:10:48;;;;;;;;;3.00;1.75;;;;;19.34;68.42;99695.22;5037640;28;46734;-71
2023/08/03 03:13:13;;;;;;;;;3.00;1.00;;;;;19.32;68.89;99706.22;5036889;28;45331;-71
2023/08/03 03:15:38;;;;;;;;;1.00;1.00;;;;;19.28;68.77;99713.13;5037918;28;45281;-71
2023/08/03 03:18:04;;;;;;;;;1.25;1.25;;;;;19.23;69.13;99712.97;5038019;28;45514;-71
2023/08/03 03:20:29;;;;;;;;;2.25;1.00;;;;;19.21;69.01;99695.38;5036609;28;66578;-71
2023/08/03 03:22:54;;;;;;;;;0.00;0.00;;;;;19.26;68.95;99709.00;5037355;28;47364;-71
2023/08/03 03:25:20;;;;;;;;;0.00;0.00;;;;;19.22;68.71;99699.72;5037640;28;45465;-71
2023/08/03 03:27:45;;;;;;;;;2.00;1.50;;;;;19.23;68.70;99706.78;5037313;28;45397;-71
2023/08/03 03:30:10;;;;;;;;;2.00;2.00;;;;;19.26;68.76;99719.78;5036846;28;59088;-71
2023/08/03 03:32:36;;;;;;;;;0.00;0.00;;;;;19.24;68.80;99713.81;5037232;28;45380;-71
2023/08/03 03:35:02;;;;;;;;;3.75;2.00;;;;;19.14;68.46;99701.66;5037386;28;45438;-71
2023/08/03 03:37:27;;;;;;;;;1.50;1.50;;;;;18.93;68.74;99680.56;5036240;28;45561;-72
2023/08/03 03:39:53;;;;;;;;;2.25;1.00;;;;;19.27;68.77;99724.94;5036557;28;45681;-72
2023/08/03 03:42:18;;;;;;;;;1.00;1.00;;;;;19.23;68.74;99726.47;5037372;28;45515;-71
2023/08/03 03:44:44;;;;;;;;;0.75;0.00;;;;;19.26;68.78;99727.88;5036962;28;45239;-71
2023/08/03 03:47:09;;;;;;;;;3.00;1.50;;;;;19.18;68.88;99714.69;5037337;28;45549;-71
2023/08/03 03:49:34;;;;;;;;;1.50;0.00;;;;;19.18;68.52;99725.47;5036995;28;46115;-71
2023/08/03 03:52:00;;;;;;;;;2.00;1.00;;;;;19.10;68.66;99703.16;5037142;28;45317;-71
2023/08/03 03:54:25;;;;;;;;;3.00;2.00;;;;;19.28;68.80;99739.25;5037262;28;45191;-71
2023/08/03 03:56:50;;;;;;;;;1.25;1.00;;;;;19.28;68.29;99741.94;5035856;28;45485;-71
2023/08/03 03:59:16;;;;;;;;;1.00;1.00;;;;;19.24;68.23;99744.28;5036501;28;51966;-71
2023/08/03 04:01:41;;;;;;;;;0.25;0.25;;;;;19.14;68.28;99738.56;5018988;28;45338;-72
2023/08/03 04:04:06;;;;;;;;;0.50;0.50;;;;;18.72;68.61;99681.81;5036844;28;45337;-72
2023/08/03 04:06:31;;;;;;;;;0.75;0.75;;;;;19.20;68.76;99751.13;5036965;28;45214;-72
2023/08/03 04:08:57;;;;;;;;;2.00;0.75;;;;;19.23;68.58;99747.19;5036578;28;54821;-71
2023/08/03 04:11:22;;;;;;;;;1.00;0.50;;;;;19.25;68.39;99743.22;5036851;28;45463;-71
2023/08/03 04:13:48;;;;;;;;;1.00;1.00;;;;;19.20;68.36;99745.75;5035355;28;64405;-71
2023/08/03 04:16:13;;;;;;;;;2.50;1.25;;;;;19.22;68.61;99753.59;5037231;28;45333;-72
2023/08/03 04:18:39;;;;;;;;;1.00;1.00;;;;;19.13;68.70;99745.00;5036209;28;46480;-71
2023/08/03 04:21:04;;;;;;;;;2.00;1.00;;;;;19.18;68.64;99749.72;5036752;28;45237;-72
2023/08/03 04:23:30;;;;;;;;;2.00;1.00;;;;;19.20;68.80;99750.31;5036576;28;45510;-73
2023/08/03 04:25:55;;;;;;;;;1.25;1.00;;;;;19.15;69.01;99765.28;5018338;28;47410;-69
2023/08/03 04:28:20;;;;;;;;;0.00;0.00;;;;;19.01;68.70;99736.00;5036072;28;45694;-72
2023/08/03 04:30:46;;;;;;;;;0.50;0.50;;;;;19.21;68.83;99762.72;5036335;28;45483;-71
2023/08/03 04:33:13;;;;;;;;;2.00;1.00;;;;;19.18;68.87;99760.50;5036586;28;45336;-71
2023/08/03 04:35:40;;;;;;;;;2.00;2.00;;;;;19.15;68.49;99757.19;5036635;28;45552;-72
2023/08/03 04:38:05;;;;;;;;;4.75;2.50;;;;;19.19;68.46;99754.06;5036325;28;46740;-72
2023/08/03 04:40:30;;;;;;;;;1.50;1.50;;;;;19.26;68.72;99760.22;5035502;28;52607;-71
2023/08/03 04:42:55;;;;;;;;;1.00;0.00;;;;;19.00;68.31;99724.41;5036247;28;45332;-70
2023/08/03 04:45:21;;;;;;;;;0.75;0.75;;;;;19.27;68.34;99756.47;5036461;28;45371;-72
2023/08/03 04:47:46;;;;;;;;;0.75;0.75;;;;;19.23;68.22;99764.19;5036292;28;46084;-72
2023/08/03 04:50:11;;;;;;;;;2.75;2.25;;;;;19.28;68.45;99776.97;5036345;28;45217;-72
2023/08/03 04:52:37;;;;;;;;;1.00;1.00;;;;;19.19;68.19;99749.50;5037520;28;45280;-72
2023/08/03 04:55:02;;;;;;;;;2.00;1.00;;;;;19.21;68.71;99768.13;5038903;28;45678;-71
2023/08/03 04:57:27;;;;;;;;;1.00;1.00;;;;;19.31;68.42;99779.22;5039537;28;46041;-72
2023/08/03 04:59:53;;;;;;;;;1.50;1.50;;;;;19.30;68.50;99777.56;5039655;28;45498;-72
2023/08/03 05:02:18;;;;;;;;;2.25;1.25;;;;;19.22;68.30;99773.31;5039614;28;46975;-72
2023/08/03 05:04:43;;;;;;;;;1.50;1.50;;;;;19.22;68.26;99781.41;5039922;28;45432;-72
2023/08/03 05:07:12;;;;;;;;;0.00;0.00;;;;;19.18;68.30;99774.78;5039536;28;45540;-72
2023/08/03 05:09:37;;;;;;;;;1.00;1.00;;;;;19.23;68.46;99771.44;5039695;28;45349;-72
2023/08/03 05:12:02;;;;;;;;;5.00;2.00;;;;;18.75;68.50;99704.78;5039545;28;45493;-72
2023/08/03 05:14:28;;;;;;;;;1.00;1.00;;;;;19.10;68.31;99757.06;5039378;28;45390;-72
2023/08/03 05:16:53;;;;;;;;;0.50;0.50;;;;;19.20;67.84;99761.91;5039104;28;46016;-72
2023/08/03 05:19:18;;;;;;;;;1.00;1.00;;;;;19.26;68.19;99781.78;5037392;28;61330;-72
2023/08/03 05:21:47;;;;;;;;;0.00;0.00;;;;;19.31;68.21;99798.09;5039271;28;45481;-72
2023/08/03 05:24:12;;;;;;;;;1.50;1.00;;;;;19.15;68.46;99770.66;5038040;28;46441;-72
2023/08/03 05:26:37;;;;;;;;;2.00;2.00;;;;;19.22;68.63;99776.00;5039174;28;46485;-72
2023/08/03 05:29:03;;;;;;;;;1.50;1.50;;;;;19.27;68.47;99788.81;5038280;28;55954;-71
2023/08/03 05:31:28;;;;;;;;;2.00;2.00;;;;;19.33;68.63;99798.69;5037801;28;45404;-72
2023/08/03 05:33:54;;;;;;;;;1.25;1.25;;;;;19.34;68.41;99805.72;5039618;28;45586;-72
2023/08/03 05:36:20;;;;;;;;;1.75;1.25;;;;;19.36;68.52;99792.84;5038913;28;46344;-71
2023/08/03 05:38:46;;;;;;;;;1.50;1.50;;;;;19.40;68.23;99810.19;5038984;28;45332;-71
2023/08/03 05:41:16;;;;;;;;;2.00;2.00;;;;;19.34;68.74;99811.09;5039298;28;45870;-71
2023/08/03 05:43:42;;;;;;;;;2.25;1.50;;;;;19.37;68.63;99808.78;5039012;28;45297;-70
2023/08/03 05:46:12;;;;;;;;;2.00;2.00;;;;;19.25;68.87;99797.13;5038397;28;45613;-71
2023/08/03 05:48:37;;;;;;;;;3.00;2.00;;;;;19.32;68.61;99810.50;5021014;28;45433;-71
2023/08/03 05:51:03;;;;;;;;;1.75;1.00;;;;;19.26;68.55;99809.53;5038747;28;48215;-71
2023/08/03 05:53:28;;;;;;;;;1.00;1.00;;;;;19.25;67.99;99801.69;5039124;28;45313;-71
2023/08/03 05:55:54;;;;;;;;;1.00;1.00;;;;;19.32;68.52;99803.25;5038480;28;45401;-71
2023/08/03 05:58:19;;;;;;;;;1.25;1.25;;;;;19.38;68.37;99818.50;5038482;28;45504;-71
2023/08/03 06:00:47;;;;;;;;;2.50;1.00;;;;;19.34;68.50;99805.72;5038833;28;45266;-71
2023/08/03 06:03:15;;;;;;;;;1.00;1.00;;;;;19.37;67.94;99814.16;5038240;28;45283;-71
2023/08/03 06:05:42;;;;;;;;;3.75;1.25;;;;;19.01;67.94;99755.69;5020541;28;48044;-71
2023/08/03 06:08:21;;;;;;;;;1.50;1.25;;;;;19.52;67.96;99835.38;5038339;28;45290;-71
2023/08/03 06:10:57;;;;;;;;;2.00;2.00;;;;;19.24;68.07;99787.38;5020672;28;45543;-71
2023/08/03 06:13:29;;;;;;;;;3.00;1.00;;;;;19.20;67.41;99777.25;5036923;28;45586;-71
2023/08/03 06:15:54;;;;;;;;;5.50;0.75;;;;;19.50;67.41;99840.19;5038384;28;46508;-72
2023/08/03 06:18:21;;;;;;;;;3.00;3.00;;;;;19.51;67.48;99839.13;5038399;28;45467;-72
2023/08/03 06:20:48;;;;;;;;;2.00;2.00;;;;;19.47;67.49;99827.16;5037152;28;45386;-71
2023/08/03 06:23:24;;;;;;;;;3.00;2.00;;;;;19.55;67.57;99845.75;5020425;28;45591;-72
2023/08/03 06:25:53;;;;;;;;;3.50;1.00;;;;;19.49;67.46;99829.63;5038176;28;46196;-72
2023/08/03 06:28:20;;;;;;;;;2.50;2.00;;;;;19.50;66.88;99834.78;5038008;28;45455;-71
2023/08/03 06:30:47;;;;;;;;;1.00;1.00;;;;;19.55;67.20;99843.03;5038362;28;45521;-71
2023/08/03 06:33:23;;;;;;;;;2.00;2.00;;;;;19.62;67.26;99851.91;5038280;28;45659;-71
2023/08/03 06:35:52;;;;;;;;;1.00;1.00;;;;;19.44;67.00;99819.50;5037851;28;46739;-71
2023/08/03 06:38:21;;;;;;;;;3.00;1.50;;;;;19.60;66.96;99847.75;5038109;28;45408;-72
2023/08/03 06:40:47;;;;;;;;;4.25;2.00;;;;;19.67;66.84;99862.00;5038024;28;45341;-71
2023/08/03 06:43:13;;;;;;;;;3.75;2.50;;;;;19.66;66.47;99846.88;5038014;28;45237;-72
2023/08/03 06:45:40;;;;;;;;;1.75;1.75;;;;;19.65;66.69;99856.84;5036014;28;48706;-72
2023/08/03 06:48:07;;;;;;;;;1.00;1.00;;;;;19.77;66.70;99869.56;5037875;28;45409;-72
2023/08/03 06:50:32;;;;;;;;;1.25;1.00;;;;;19.73;66.02;99864.63;5019723;28;45247;-71
2023/08/03 06:52:59;;;;;;;;;4.25;3.00;;;;;19.74;66.09;99874.34;5037866;28;45463;-71
2023/08/03 06:55:25;;;;;;;;;2.50;2.00;;;;;19.78;65.90;99882.00;5037767;28;46670;-70
2023/08/03 06:57:50;;;;;;;;;4.00;1.50;;;;;19.66;65.83;99865.75;5037717;28;45275;-72
2023/08/03 07:00:17;;;;;;;;;4.50;1.00;;;;;19.64;66.23;99870.56;5037760;28;45340;-71
2023/08/03 07:02:44;;;;;;;;;1.75;1.75;;;;;19.63;66.79;99877.00;5037874;28;46322;-72
2023/08/03 07:05:10;;;;;;;;;6.25;5.50;;;;;19.77;66.92;99904.63;5037515;28;46517;-72
2023/08/03 07:07:35;;;;;;;;;4.50;2.50;;;;;19.81;66.81;99903.13;5037578;28;45583;-72
2023/08/03 07:10:01;;;;;;;;;3.50;2.00;;;;;19.74;66.14;99881.63;5037598;28;45578;-72
2023/08/03 07:12:27;;;;;;;;;3.00;1.25;;;;;19.85;66.34;99904.34;5019677;28;45265;-72
2023/08/03 07:14:53;;;;;;;;;2.00;1.50;;;;;19.86;66.30;99911.38;5014508;28;48674;-71
2023/08/03 07:17:18;;;;;;;;;3.50;2.00;;;;;19.72;66.27;99884.56;5017445;28;45281;-72
2023/08/03 07:19:44;;;;;;;;;2.25;2.25;;;;;19.69;65.94;99885.00;5017715;28;45492;-72
2023/08/03 07:22:09;;;;;;;;;2.50;2.00;;;;;19.87;66.03;99915.72;5017746;28;45546;-72
2023/08/03 07:24:35;;;;;;;;;3.75;2.00;;;;;19.75;66.28;99904.84;5017394;28;46444;-71
2023/08/03 07:27:01;;;;;;;;;2.75;2.75;;;;;19.84;66.29;99913.50;5015825;28;45561;-73
2023/08/03 07:29:29;;;;;;;;;2.00;1.00;;;;;19.86;66.47;99923.00;5017146;28;45276;-72
2023/08/03 07:31:55;;;;;;;;;5.50;4.00;;;;;19.89;66.78;99919.84;5017596;28;45353;-71
2023/08/03 07:34:21;;;;;;;;;2.25;1.75;;;;;19.86;66.75;99932.97;5015611;28;47157;-71
2023/08/03 07:36:47;;;;;;;;;2.00;1.00;;;;;19.85;67.16;99931.31;5017173;28;45411;-72
2023/08/03 07:39:12;;;;;;;;;3.50;2.25;;;;;19.95;67.43;99937.00;5017492;28;45308;-71
2023/08/03 07:41:38;;;;;;;;;2.50;2.50;;;;;19.92;67.37;99926.66;5017430;28;45249;-71
2023/08/03 07:44:04;;;;;;;;;2.50;1.50;;;;;19.97;67.31;99934.91;5016786;28;45469;-72
2023/08/03 07:46:29;;;;;;;;;2.50;1.00;;;;;19.92;66.89;99930.19;5017322;28;45294;-73
2023/08/03 07:48:56;;;;;;;;;2.00;2.00;;;;;20.03;67.38;99945.63;5017020;28;45230;-71
2023/08/03 07:51:21;;;;;;;;;4.00;4.00;;;;;20.04;67.16;99936.50;5017407;28;45414;-72
2023/08/03 07:53:47;;;;;;;;;2.50;1.25;;;;;19.95;66.79;99916.25;5017148;28;46463;-72
2023/08/03 07:56:22;;;;;;;;;1.75;1.75;;;;;20.19;65.93;99938.78;5017047;28;45443;-71
2023/08/03 07:58:49;;;;;;;;;3.50;2.00;;;;;20.11;66.04;99941.81;5015266;28;45835;-72
2023/08/03 08:01:15;;;;;;;;;5.00;3.00;;;;;20.02;65.94;99924.25;5015941;28;45557;-72
2023/08/03 08:03:41;;;;;;;;;1.00;1.00;;;;;20.11;65.43;99954.47;5016823;28;46629;-72
2023/08/03 08:06:15;;;;;;;;;1.00;1.00;;;;;20.09;65.75;99956.56;5016697;28;45462;-70
2023/08/03 08:08:41;;;;;;;;;4.25;3.00;;;;;20.07;65.39;99950.59;5017144;28;45489;-70
2023/08/03 08:11:07;;;;;;;;;2.00;2.00;;;;;20.11;65.42;99954.47;5017119;28;45414;-70
2023/08/03 08:13:33;;;;;;;;;2.25;2.25;;;;;19.98;65.29;99941.94;5023578;28;45701;-72
2023/08/03 08:16:03;;;;;;;;;1.75;1.75;;;;;20.05;65.39;99970.53;5036650;28;45416;-72
2023/08/03 08:18:29;;;;;;;;;2.00;2.00;;;;;20.00;65.26;99967.66;5036586;28;45266;-72
2023/08/03 08:20:55;;;;;;;;;3.50;2.50;;;;;20.05;65.80;99980.50;5036656;28;45471;-72
2023/08/03 08:23:21;;;;;;;;;3.75;2.75;;;;;19.98;65.46;99969.75;5036518;28;45972;-71
2023/08/03 08:25:46;;;;;;;;;2.25;1.00;;;;;20.00;65.34;99980.31;5036263;28;45356;-71
2023/08/03 08:28:11;;;;;;;;;3.50;2.00;;;;;19.96;65.30;99988.03;5039658;28;45396;-71
2023/08/03 08:30:37;;;;;;;;;2.00;1.50;;;;;19.99;65.32;99987.59;5040123;28;45240;-71
2023/08/03 08:33:02;;;;;;;;;2.75;2.75;;;;;20.13;65.38;99998.25;5039833;28;45401;-72
2023/08/03 08:35:27;;;;;;;;;3.25;1.50;;;;;20.14;65.03;100000.72;5039447;28;60794;-71
2023/08/03 08:37:53;;;;;;;;;3.00;2.00;;;;;20.16;65.04;100008.59;5040050;28;45286;-72
2023/08/03 08:40:18;;;;;;;;;2.00;1.00;;;;;20.02;64.93;99992.56;5022137;28;45337;-72
2023/08/03 08:42:51;;;;;;;;;2.25;1.00;;;;;20.05;65.00;99991.28;5039375;28;45539;-72
2023/08/03 08:45:17;;;;;;;;;2.25;1.00;;;;;20.18;65.23;100019.97;5039687;28;45277;-70
2023/08/03 08:47:42;;;;;;;;;2.00;2.00;;;;;20.14;65.29;100011.50;5039916;28;45422;-72
2023/08/03 08:50:07;;;;;;;;;3.00;1.00;;;;;20.20;65.13;100025.97;5040040;28;45341;-72
2023/08/03 08:52:33;;;;;;;;;2.50;1.00;;;;;20.24;65.31;100022.63;5039636;28;45908;-71
2023/08/03 08:55:11;;;;;;;;;1.00;1.00;;;;;20.28;65.34;100021.13;5039577;28;45679;-71
2023/08/03 08:57:36;;;;;;;;;1.75;1.75;;;;;20.33;65.24;100026.66;5039512;28;45392;-71
2023/08/03 09:00:05;;;;;;;;;1.75;1.75;;;;;20.25;65.21;100012.66;5039683;28;45251;-72
2023/08/03 09:02:30;;;;;;;;;2.25;2.00;;;;;20.30;65.11;100026.28;5039139;28;45707;-70
2023/08/03 09:04:55;;;;;;;;;2.50;1.75;;;;;20.31;64.95;100012.56;5037982;28;45345;-72
2023/08/03 09:07:21;;;;;;;;;1.75;1.75;;;;;20.46;64.67;100033.00;5038053;28;45409;-71
2023/08/03 09:09:46;;;;;;;;;1.00;1.00;;;;;20.37;65.08;100027.03;5039569;28;45304;-72
2023/08/03 09:12:25;;;;;;;;;3.25;3.25;;;;;20.43;64.44;100039.69;5038765;28;45583;-72
2023/08/03 09:14:52;;;;;;;;;3.50;3.00;;;;;20.50;64.73;100050.41;5038816;28;45375;-72
2023/08/03 09:17:22;;;;;;;;;3.25;3.25;;;;;20.59;65.16;100040.94;5039292;28;45387;-72
2023/08/03 09:19:48;;;;;;;;;1.75;1.75;;;;;20.67;65.16;100035.22;5038993;28;45398;-71
2023/08/03 09:22:15;;;;;;;;;1.50;1.00;;;;;20.73;64.56;100034.31;5039155;28;46171;-72
2023/08/03 09:24:40;;;;;;;;;3.00;3.00;;;;;20.75;64.25;100025.97;5039103;28;45468;-72
2023/08/03 09:27:06;;;;;;;;;2.25;2.00;;;;;20.91;63.12;100044.28;5021202;28;45443;-71
2023/08/03 09:29:32;;;;;;;;;1.00;1.00;;;;;20.86;62.84;100047.66;5039136;28;45523;-71
2023/08/03 09:32:02;;;;;;;;;2.00;2.00;;;;;20.85;64.42;100056.81;5038882;28;46434;-72
2023/08/03 09:34:39;;;;;;;;;3.75;3.75;;;;;20.88;65.05;100050.13;5038987;28;45433;-71
2023/08/03 09:37:06;;;;;;;;;1.00;1.00;;;;;20.85;64.06;100051.41;5039152;28;45336;-70
2023/08/03 09:39:37;;;;;;;;;3.50;1.00;;;;;20.84;64.62;100049.78;5020189;28;45448;-71
2023/08/03 09:42:04;;;;;;;;;1.50;0.75;;;;;20.56;63.62;100019.78;5038904;28;45381;-72
2023/08/03 09:44:33;;;;;;;;;2.25;1.00;;;;;20.80;63.55;100064.75;5038495;28;45383;-72
2023/08/03 09:47:00;;;;;;;;;1.00;1.00;;;;;20.79;63.91;100052.31;5037566;28;45460;-72
2023/08/03 09:49:25;;;;;;;;;1.00;1.00;;;;;20.74;64.07;100044.06;5039216;28;45210;-73
2023/08/03 09:51:57;;;;;;;;;1.75;1.75;;;;;20.91;63.42;100069.41;5038609;28;45560;-71
2023/08/03 09:54:37;;;;;;;;;2.00;2.00;;;;;20.92;62.83;100057.56;5038612;28;45309;-72
2023/08/03 09:57:08;;;;;;;;;2.50;1.00;;;;;21.04;62.74;100048.69;5038986;28;45356;-71
2023/08/03 09:59:36;;;;;;;;;0.00;0.00;;;;;20.95;60.76;100045.47;5037463;28;45823;-71
2023/08/03 10:02:05;;;;;;;;;1.50;1.50;;;;;20.90;61.28;100065.06;5020394;28;46452;-71
2023/08/03 10:04:39;;;;;;;;;1.25;0.75;;;;;20.92;61.75;100052.16;5038498;28;45369;-71
2023/08/03 10:07:08;;;;;;;;;1.00;1.00;;;;;21.05;61.93;100069.25;5038661;28;45300;-71
2023/08/03 10:09:39;;;;;;;;;2.50;1.00;;;;;21.03;61.62;100061.38;5038629;28;46441;-71
2023/08/03 10:12:09;;;;;;;;;19.33;16.67;;;;;21.07;61.14;100059.84;5036689;28;46338;-71
2023/08/03 10:14:42;;;;;;;;;5.25;1.75;;;;;21.10;61.62;100075.59;5037766;28;45331;-72
2023/08/03 10:17:09;;;;;;;;;1.00;1.00;;;;;21.23;60.99;100066.50;5038337;28;45409;-70
2023/08/03 10:19:37;;;;;;;;;1.00;1.00;;;;;21.28;60.71;100073.94;5038595;28;45241;-71
2023/08/03 10:22:02;;;;;;;;;2.75;2.00;;;;;21.32;60.37;100078.66;5036724;28;48404;-70
2023/08/03 10:24:28;;;;;;;;;0.00;0.00;;;;;21.24;60.16;100077.09;5038191;28;45383;-73
2023/08/03 10:27:18;;;;;;;;;2.00;2.00;;;;;21.19;59.91;100071.50;5038387;28;45324;-71
2023/08/03 10:29:49;;;;;;;;;2.00;1.00;;;;;21.19;60.70;100100.44;5038286;28;45440;-70
2023/08/03 10:32:19;;;;;;;;;1.00;1.00;;;;;21.15;60.57;100088.44;5037942;28;47011;-71
2023/08/03 10:34:44;;;;;;;;;1.50;1.00;;;;;21.15;60.46;100099.25;5038091;28;45346;-72
2023/08/03 10:37:13;;;;;;;;;2.00;1.00;;;;;21.14;60.13;100090.31;5038164;28;45846;-72
2023/08/03 10:39:47;;;;;;;;;2.00;1.00;;;;;21.16;60.37;100106.28;5038299;28;45246;-73
2023/08/03 10:42:22;;;;;;;;;0.00;0.00;;;;;21.12;60.22;100105.09;5037861;28;46302;-71
2023/08/03 10:44:48;;;;;;;;;2.00;1.00;;;;;21.05;60.20;100102.50;5037736;28;45409;-70
2023/08/03 10:47:28;;;;;;;;;1.00;0.00;;;;;21.01;60.35;100109.38;5038036;28;45510;-71
2023/08/03 10:49:55;;;;;;;;;1.00;1.00;;;;;21.13;60.77;100106.75;5038182;28;45223;-71
2023/08/03 10:52:22;;;;;;;;;2.00;2.00;;;;;21.22;60.99;100110.78;5037637;28;46478;-72
2023/08/03 10:54:49;;;;;;;;;1.25;1.25;;;;;21.15;60.50;100088.44;5019811;28;45464;-71
2023/08/03 10:57:19;;;;;;;;;4.00;1.00;;;;;21.29;60.78;100116.16;5038063;28;45321;-71
2023/08/03 10:59:50;;;;;;;;;1.00;0.25;;;;;21.16;60.44;100090.06;5037754;28;45353;-72
2023/08/03 11:02:21;;;;;;;;;0.25;0.25;;;;;21.25;60.38;100110.38;5037650;28;46602;-70
2023/08/03 11:04:50;;;;;;;;;7.75;6.00;;;;;21.31;60.31;100122.97;5037665;28;45399;-70
2023/08/03 11:07:19;;;;;;;;;2.00;2.00;;;;;21.34;60.10;100116.28;5037594;28;45250;-72
2023/08/03 11:09:49;;;;;;;;;1.00;1.00;;;;;21.28;60.51;100136.94;5037786;28;45282;-73
2023/08/03 11:12:16;;;;;;;;;2.50;1.00;;;;;21.29;60.49;100122.38;5037407;28;45707;-71
2023/08/03 11:14:44;;;;;;;;;1.50;1.50;;;;;21.20;60.84;100112.88;5037190;28;45290;-71
2023/08/03 11:17:09;;;;;;;;;1.50;0.00;;;;;21.19;60.33;100127.47;5037504;28;45487;-71
2023/08/03 11:19:38;;;;;;;;;4.00;1.25;;;;;21.17;61.02;100134.97;5037401;28;45365;-72
2023/08/03 11:22:05;;;;;;;;;0.00;0.00;;;;;21.10;60.90;100126.13;5037305;28;46330;-72
2023/08/03 11:24:31;;;;;;;;;1.50;0.50;;;;;21.11;60.82;100127.78;5019291;28;46136;-72
2023/08/03 11:27:02;;;;;;;;;1.50;1.00;;;;;21.13;60.57;100139.19;5037513;28;45306;-72
2023/08/03 11:29:28;;;;;;;;;1.25;1.25;;;;;21.04;60.32;100145.97;5019417;28;45547;-71